Terminal Aerodrome Forecast
Issued by NWS Sterling, VA

Current Version | Previous Version | Graphics & Text | Print | Product List | Glossary On
Versions: 1 2 3 4 5 6 7 8 9 10 11 12 13 14 15 16 17 18 19 20 21
339
FTUS41 KLWX 152328
TAFDCA
TAF
KDCA 152328Z 1600/1706 28004KT P6SM SCT045
     FM160600 27007KT P6SM FEW250
     FM161200 22006KT P6SM SCT120
     FM161500 23010KT P6SM SCT090
     FM162300 23005KT P6SM FEW250=

USA.gov is the U.S. government's official web portal to all federal, state and local government web resources and services.